sensor_id;sensor_type;location;lat;lon;timestamp;P1;durP1;ratioP1;P2;durP2;ratioP2
65238;SDS011;51827;51.186;6.926;2022-12-07T00:00:16;2.88;;;1.67;;
65238;SDS011;51827;51.186;6.926;2022-12-07T00:01:24;2.15;;;1.40;;
65238;SDS011;51827;51.186;6.926;2022-12-07T00:02:26;2.35;;;1.48;;
65238;SDS011;51827;51.186;6.926;2022-12-07T00:03:27;2.60;;;1.50;;
65238;SDS011;51827;51.186;6.926;2022-12-07T00:04:27;3.50;;;1.50;;
65238;SDS011;51827;51.186;6.926;2022-12-07T00:05:27;3.30;;;1.60;;
65238;SDS011;51827;51.186;6.926;2022-12-07T00:06:29;2.78;;;1.60;;
65238;SDS011;51827;51.186;6.926;2022-12-07T00:07:31;2.35;;;1.42;;
65238;SDS011;51827;51.186;6.926;2022-12-07T00:08:31;2.90;;;1.50;;
65238;SDS011;51827;51.186;6.926;2022-12-07T00:09:32;2.70;;;1.67;;
65238;SDS011;51827;51.186;6.926;2022-12-07T00:10:35;2.67;;;1.57;;
65238;SDS011;51827;51.186;6.926;2022-12-07T00:11:35;3.00;;;1.80;;
65238;SDS011;51827;51.186;6.926;2022-12-07T00:12:36;4.70;;;1.40;;
65238;SDS011;51827;51.186;6.926;2022-12-07T00:13:36;2.13;;;1.40;;
65238;SDS011;51827;51.186;6.926;2022-12-07T00:15:37;3.45;;;1.48;;
65238;SDS011;51827;51.186;6.926;2022-12-07T00:16:38;2.83;;;1.57;;
65238;SDS011;51827;51.186;6.926;2022-12-07T00:17:38;2.03;;;1.30;;
65238;SDS011;51827;51.186;6.926;2022-12-07T00:18:38;3.10;;;1.53;;
65238;SDS011;51827;51.186;6.926;2022-12-07T00:19:38;2.27;;;1.63;;
65238;SDS011;51827;51.186;6.926;2022-12-07T00:20:39;3.13;;;1.80;;
65238;SDS011;51827;51.186;6.926;2022-12-07T00:21:39;4.63;;;1.60;;
65238;SDS011;51827;51.186;6.926;2022-12-07T00:22:40;2.13;;;1.65;;
65238;SDS011;51827;51.186;6.926;2022-12-07T00:23:41;2.43;;;1.43;;
65238;SDS011;51827;51.186;6.926;2022-12-07T00:24:42;2.45;;;1.50;;
65238;SDS011;51827;51.186;6.926;2022-12-07T00:25:42;2.10;;;1.50;;
65238;SDS011;51827;51.186;6.926;2022-12-07T00:26:42;2.47;;;1.50;;
65238;SDS011;51827;51.186;6.926;2022-12-07T00:27:43;2.30;;;1.53;;
65238;SDS011;51827;51.186;6.926;2022-12-07T00:28:47;2.20;;;1.70;;
65238;SDS011;51827;51.186;6.926;2022-12-07T00:29:48;2.97;;;1.73;;
65238;SDS011;51827;51.186;6.926;2022-12-07T00:30:48;3.10;;;1.57;;
65238;SDS011;51827;51.186;6.926;2022-12-07T00:31:48;1.80;;;1.30;;
65238;SDS011;51827;51.186;6.926;2022-12-07T00:32:49;2.80;;;1.30;;
65238;SDS011;51827;51.186;6.926;2022-12-07T00:33:49;2.00;;;1.30;;
65238;SDS011;51827;51.186;6.926;2022-12-07T00:34:50;1.95;;;1.40;;
65238;SDS011;51827;51.186;6.926;2022-12-07T00:35:57;2.70;;;1.63;;
65238;SDS011;51827;51.186;6.926;2022-12-07T00:36:58;3.08;;;1.50;;
65238;SDS011;51827;51.186;6.926;2022-12-07T00:37:58;2.33;;;1.50;;
65238;SDS011;51827;51.186;6.926;2022-12-07T00:38:59;2.57;;;1.70;;
65238;SDS011;51827;51.186;6.926;2022-12-07T00:40:00;2.70;;;1.42;;
65238;SDS011;51827;51.186;6.926;2022-12-07T00:41:02;2.43;;;1.60;;
65238;SDS011;51827;51.186;6.926;2022-12-07T00:42:04;2.42;;;1.40;;
65238;SDS011;51827;51.186;6.926;2022-12-07T00:43:04;1.73;;;1.30;;
65238;SDS011;51827;51.186;6.926;2022-12-07T00:44:04;2.30;;;1.40;;
65238;SDS011;51827;51.186;6.926;2022-12-07T00:45:05;2.73;;;1.73;;
65238;SDS011;51827;51.186;6.926;2022-12-07T00:46:05;2.47;;;1.60;;
65238;SDS011;51827;51.186;6.926;2022-12-07T00:47:06;2.63;;;1.67;;
65238;SDS011;51827;51.186;6.926;2022-12-07T00:48:06;1.80;;;1.40;;
65238;SDS011;51827;51.186;6.926;2022-12-07T00:49:06;2.00;;;1.40;;
65238;SDS011;51827;51.186;6.926;2022-12-07T00:50:06;3.00;;;1.80;;
65238;SDS011;51827;51.186;6.926;2022-12-07T00:51:07;2.45;;;1.45;;
65238;SDS011;51827;51.186;6.926;2022-12-07T00:52:09;2.70;;;1.60;;
65238;SDS011;51827;51.186;6.926;2022-12-07T00:53:09;2.30;;;1.60;;
65238;SDS011;51827;51.186;6.926;2022-12-07T00:54:10;2.55;;;1.60;;
65238;SDS011;51827;51.186;6.926;2022-12-07T00:55:10;2.07;;;1.40;;
65238;SDS011;51827;51.186;6.926;2022-12-07T00:57:15;3.97;;;1.60;;
65238;SDS011;51827;51.186;6.926;2022-12-07T00:58:15;2.57;;;1.60;;
65238;SDS011;51827;51.186;6.926;2022-12-07T00:59:16;3.17;;;1.50;;
65238;SDS011;51827;51.186;6.926;2022-12-07T01:00:16;2.07;;;1.40;;
65238;SDS011;51827;51.186;6.926;2022-12-07T01:01:16;3.53;;;1.67;;
65238;SDS011;51827;51.186;6.926;2022-12-07T01:02:16;2.03;;;1.60;;
65238;SDS011;51827;51.186;6.926;2022-12-07T01:03:17;2.00;;;1.33;;
65238;SDS011;51827;51.186;6.926;2022-12-07T01:04:17;2.50;;;1.65;;
65238;SDS011;51827;51.186;6.926;2022-12-07T01:05:18;2.10;;;1.23;;
65238;SDS011;51827;51.186;6.926;2022-12-07T01:06:19;2.45;;;1.60;;
65238;SDS011;51827;51.186;6.926;2022-12-07T01:07:21;2.78;;;1.60;;
65238;SDS011;51827;51.186;6.926;2022-12-07T01:08:21;5.17;;;1.50;;
65238;SDS011;51827;51.186;6.926;2022-12-07T01:09:22;1.75;;;1.30;;
65238;SDS011;51827;51.186;6.926;2022-12-07T01:10:23;3.20;;;2.00;;
65238;SDS011;51827;51.186;6.926;2022-12-07T01:11:24;2.43;;;1.50;;
65238;SDS011;51827;51.186;6.926;2022-12-07T01:12:27;2.08;;;1.40;;
65238;SDS011;51827;51.186;6.926;2022-12-07T01:13:27;2.70;;;1.77;;
65238;SDS011;51827;51.186;6.926;2022-12-07T01:14:29;2.88;;;1.40;;
65238;SDS011;51827;51.186;6.926;2022-12-07T01:15:29;2.93;;;1.50;;
65238;SDS011;51827;51.186;6.926;2022-12-07T01:16:30;2.93;;;1.60;;
65238;SDS011;51827;51.186;6.926;2022-12-07T01:17:31;2.85;;;1.55;;
65238;SDS011;51827;51.186;6.926;2022-12-07T01:18:33;2.50;;;1.33;;
65238;SDS011;51827;51.186;6.926;2022-12-07T01:19:35;2.22;;;1.48;;
65238;SDS011;51827;51.186;6.926;2022-12-07T01:20:35;2.50;;;1.50;;
65238;SDS011;51827;51.186;6.926;2022-12-07T01:21:36;2.30;;;1.60;;
65238;SDS011;51827;51.186;6.926;2022-12-07T01:22:39;2.35;;;1.27;;
65238;SDS011;51827;51.186;6.926;2022-12-07T01:23:40;2.22;;;1.38;;
65238;SDS011;51827;51.186;6.926;2022-12-07T01:24:41;2.17;;;1.42;;
65238;SDS011;51827;51.186;6.926;2022-12-07T01:25:41;2.50;;;1.53;;
65238;SDS011;51827;51.186;6.926;2022-12-07T01:26:42;2.37;;;1.50;;
65238;SDS011;51827;51.186;6.926;2022-12-07T01:27:42;2.60;;;1.47;;
65238;SDS011;51827;51.186;6.926;2022-12-07T01:28:42;2.27;;;1.43;;
65238;SDS011;51827;51.186;6.926;2022-12-07T01:29:43;2.65;;;1.55;;
65238;SDS011;51827;51.186;6.926;2022-12-07T01:30:43;2.67;;;1.50;;
65238;SDS011;51827;51.186;6.926;2022-12-07T01:31:44;2.60;;;1.70;;
65238;SDS011;51827;51.186;6.926;2022-12-07T01:32:44;4.80;;;1.50;;
65238;SDS011;51827;51.186;6.926;2022-12-07T01:33:48;2.03;;;1.30;;
65238;SDS011;51827;51.186;6.926;2022-12-07T01:34:51;2.95;;;1.50;;
65238;SDS011;51827;51.186;6.926;2022-12-07T01:35:51;2.13;;;1.60;;
65238;SDS011;51827;51.186;6.926;2022-12-07T01:36:51;2.10;;;1.40;;
65238;SDS011;51827;51.186;6.926;2022-12-07T01:37:51;2.60;;;1.53;;
65238;SDS011;51827;51.186;6.926;2022-12-07T01:38:54;1.90;;;1.40;;
65238;SDS011;51827;51.186;6.926;2022-12-07T01:39:56;1.90;;;1.40;;
65238;SDS011;51827;51.186;6.926;2022-12-07T01:40:56;2.77;;;1.50;;
65238;SDS011;51827;51.186;6.926;2022-12-07T01:41:57;1.95;;;1.42;;
65238;SDS011;51827;51.186;6.926;2022-12-07T01:42:57;2.73;;;1.40;;
65238;SDS011;51827;51.186;6.926;2022-12-07T01:44:18;2.43;;;1.37;;
65238;SDS011;51827;51.186;6.926;2022-12-07T01:45:34;2.33;;;1.40;;
65238;SDS011;51827;51.186;6.926;2022-12-07T01:46:38;2.10;;;1.50;;
65238;SDS011;51827;51.186;6.926;2022-12-07T01:47:39;2.58;;;1.58;;
65238;SDS011;51827;51.186;6.926;2022-12-07T01:49:42;2.53;;;1.57;;
65238;SDS011;51827;51.186;6.926;2022-12-07T01:50:45;2.13;;;1.35;;
65238;SDS011;51827;51.186;6.926;2022-12-07T01:51:50;3.63;;;1.88;;
65238;SDS011;51827;51.186;6.926;2022-12-07T01:52:55;2.72;;;1.60;;
65238;SDS011;51827;51.186;6.926;2022-12-07T01:53:58;2.10;;;1.60;;
65238;SDS011;51827;51.186;6.926;2022-12-07T01:55:03;2.28;;;1.60;;
65238;SDS011;51827;51.186;6.926;2022-12-07T01:56:06;2.75;;;1.77;;
65238;SDS011;51827;51.186;6.926;2022-12-07T01:57:08;2.47;;;1.70;;
65238;SDS011;51827;51.186;6.926;2022-12-07T01:58:09;4.75;;;1.45;;
65238;SDS011;51827;51.186;6.926;2022-12-07T01:59:11;2.97;;;1.75;;
65238;SDS011;51827;51.186;6.926;2022-12-07T02:00:11;2.23;;;1.47;;
65238;SDS011;51827;51.186;6.926;2022-12-07T02:01:12;2.30;;;1.70;;
65238;SDS011;51827;51.186;6.926;2022-12-07T02:03:22;2.03;;;1.58;;
65238;SDS011;51827;51.186;6.926;2022-12-07T02:04:27;2.30;;;1.40;;
65238;SDS011;51827;51.186;6.926;2022-12-07T02:05:28;2.17;;;1.40;;
65238;SDS011;51827;51.186;6.926;2022-12-07T02:06:28;2.25;;;1.55;;
65238;SDS011;51827;51.186;6.926;2022-12-07T02:07:30;2.20;;;1.40;;
65238;SDS011;51827;51.186;6.926;2022-12-07T02:08:32;2.30;;;1.40;;
65238;SDS011;51827;51.186;6.926;2022-12-07T02:09:33;2.22;;;1.60;;
65238;SDS011;51827;51.186;6.926;2022-12-07T02:10:33;2.37;;;1.40;;
65238;SDS011;51827;51.186;6.926;2022-12-07T02:11:34;2.97;;;1.57;;
65238;SDS011;51827;51.186;6.926;2022-12-07T02:12:34;2.58;;;1.60;;
65238;SDS011;51827;51.186;6.926;2022-12-07T02:13:35;1.90;;;1.40;;
65238;SDS011;51827;51.186;6.926;2022-12-07T02:14:38;2.00;;;1.33;;
65238;SDS011;51827;51.186;6.926;2022-12-07T02:15:41;1.90;;;1.50;;
65238;SDS011;51827;51.186;6.926;2022-12-07T02:16:57;2.53;;;1.50;;
65238;SDS011;51827;51.186;6.926;2022-12-07T02:25:38;2.65;;;1.60;;
65238;SDS011;51827;51.186;6.926;2022-12-07T02:28:07;1.90;;;1.50;;
65238;SDS011;51827;51.186;6.926;2022-12-07T02:30:32;2.10;;;1.40;;
65238;SDS011;51827;51.186;6.926;2022-12-07T02:31:36;2.10;;;1.40;;
65238;SDS011;51827;51.186;6.926;2022-12-07T02:32:56;2.30;;;1.50;;
65238;SDS011;51827;51.186;6.926;2022-12-07T02:34:03;2.03;;;1.50;;
65238;SDS011;51827;51.186;6.926;2022-12-07T02:35:11;3.42;;;1.40;;
65238;SDS011;51827;51.186;6.926;2022-12-07T02:36:20;2.53;;;1.40;;
65238;SDS011;51827;51.186;6.926;2022-12-07T02:37:27;2.60;;;1.60;;
65238;SDS011;51827;51.186;6.926;2022-12-07T02:39:51;3.50;;;1.58;;
65238;SDS011;51827;51.186;6.926;2022-12-07T02:41:10;2.47;;;1.50;;
65238;SDS011;51827;51.186;6.926;2022-12-07T02:42:15;2.10;;;1.50;;
65238;SDS011;51827;51.186;6.926;2022-12-07T02:45:01;2.22;;;1.35;;
65238;SDS011;51827;51.186;6.926;2022-12-07T02:46:08;2.90;;;1.60;;
65238;SDS011;51827;51.186;6.926;2022-12-07T02:47:12;3.40;;;1.60;;
65238;SDS011;51827;51.186;6.926;2022-12-07T02:48:16;2.35;;;1.67;;
65238;SDS011;51827;51.186;6.926;2022-12-07T02:49:18;2.63;;;1.73;;
65238;SDS011;51827;51.186;6.926;2022-12-07T02:50:21;1.92;;;1.40;;
65238;SDS011;51827;51.186;6.926;2022-12-07T02:51:22;2.08;;;1.40;;
65238;SDS011;51827;51.186;6.926;2022-12-07T02:52:22;3.33;;;1.60;;
65238;SDS011;51827;51.186;6.926;2022-12-07T02:54:32;3.33;;;1.60;;
65238;SDS011;51827;51.186;6.926;2022-12-07T02:55:35;1.70;;;1.30;;
65238;SDS011;51827;51.186;6.926;2022-12-07T02:58:03;2.38;;;1.55;;
65238;SDS011;51827;51.186;6.926;2022-12-07T03:01:00;2.28;;;1.60;;
65238;SDS011;51827;51.186;6.926;2022-12-07T03:03:34;1.88;;;1.40;;
65238;SDS011;51827;51.186;6.926;2022-12-07T03:06:16;2.33;;;1.48;;
65238;SDS011;51827;51.186;6.926;2022-12-07T03:11:48;1.73;;;1.35;;
65238;SDS011;51827;51.186;6.926;2022-12-07T03:14:21;1.92;;;1.42;;
65238;SDS011;51827;51.186;6.926;2022-12-07T03:15:32;2.17;;;1.45;;
65238;SDS011;51827;51.186;6.926;2022-12-07T03:16:37;1.98;;;1.50;;
65238;SDS011;51827;51.186;6.926;2022-12-07T03:17:43;2.10;;;1.50;;
65238;SDS011;51827;51.186;6.926;2022-12-07T03:18:47;2.80;;;1.60;;
65238;SDS011;51827;51.186;6.926;2022-12-07T03:19:52;2.50;;;1.52;;
65238;SDS011;51827;51.186;6.926;2022-12-07T03:21:01;2.35;;;1.45;;
65238;SDS011;51827;51.186;6.926;2022-12-07T03:22:08;2.50;;;1.83;;
65238;SDS011;51827;51.186;6.926;2022-12-07T03:23:11;2.53;;;1.48;;
65238;SDS011;51827;51.186;6.926;2022-12-07T03:25:18;2.00;;;1.40;;
65238;SDS011;51827;51.186;6.926;2022-12-07T03:26:19;2.87;;;1.53;;
65238;SDS011;51827;51.186;6.926;2022-12-07T03:27:34;2.95;;;1.58;;
65238;SDS011;51827;51.186;6.926;2022-12-07T03:28:46;1.80;;;1.40;;
65238;SDS011;51827;51.186;6.926;2022-12-07T03:29:53;2.00;;;1.40;;
65238;SDS011;51827;51.186;6.926;2022-12-07T03:32:35;2.03;;;1.60;;
65238;SDS011;51827;51.186;6.926;2022-12-07T03:33:44;2.45;;;1.50;;
65238;SDS011;51827;51.186;6.926;2022-12-07T03:34:53;1.95;;;1.50;;
65238;SDS011;51827;51.186;6.926;2022-12-07T03:36:06;8.20;;;1.95;;
65238;SDS011;51827;51.186;6.926;2022-12-07T03:37:23;1.90;;;1.35;;
65238;SDS011;51827;51.186;6.926;2022-12-07T03:38:37;2.28;;;1.50;;
65238;SDS011;51827;51.186;6.926;2022-12-07T03:42:25;2.13;;;1.40;;
65238;SDS011;51827;51.186;6.926;2022-12-07T03:43:27;2.78;;;1.50;;
65238;SDS011;51827;51.186;6.926;2022-12-07T03:44:29;2.40;;;1.50;;
65238;SDS011;51827;51.186;6.926;2022-12-07T03:46:44;2.13;;;1.40;;
65238;SDS011;51827;51.186;6.926;2022-12-07T03:47:59;2.95;;;1.60;;
65238;SDS011;51827;51.186;6.926;2022-12-07T03:55:32;2.78;;;1.80;;
65238;SDS011;51827;51.186;6.926;2022-12-07T03:56:35;2.20;;;1.50;;
65238;SDS011;51827;51.186;6.926;2022-12-07T03:57:36;2.40;;;1.60;;
65238;SDS011;51827;51.186;6.926;2022-12-07T03:58:39;2.65;;;1.50;;
65238;SDS011;51827;51.186;6.926;2022-12-07T03:59:40;2.10;;;1.50;;
65238;SDS011;51827;51.186;6.926;2022-12-07T04:00:42;1.83;;;1.45;;
65238;SDS011;51827;51.186;6.926;2022-12-07T04:01:44;2.17;;;1.50;;
65238;SDS011;51827;51.186;6.926;2022-12-07T04:02:52;2.83;;;1.58;;
65238;SDS011;51827;51.186;6.926;2022-12-07T04:03:53;1.98;;;1.30;;
65238;SDS011;51827;51.186;6.926;2022-12-07T04:04:53;3.07;;;1.67;;
65238;SDS011;51827;51.186;6.926;2022-12-07T04:05:55;2.40;;;1.55;;
65238;SDS011;51827;51.186;6.926;2022-12-07T04:06:55;1.75;;;1.50;;
65238;SDS011;51827;51.186;6.926;2022-12-07T04:07:56;2.50;;;1.40;;
65238;SDS011;51827;51.186;6.926;2022-12-07T04:08:56;2.40;;;1.50;;
65238;SDS011;51827;51.186;6.926;2022-12-07T04:09:56;2.00;;;1.40;;
65238;SDS011;51827;51.186;6.926;2022-12-07T04:10:56;2.93;;;1.50;;
65238;SDS011;51827;51.186;6.926;2022-12-07T04:11:57;2.23;;;1.30;;
65238;SDS011;51827;51.186;6.926;2022-12-07T04:12:57;1.90;;;1.37;;
65238;SDS011;51827;51.186;6.926;2022-12-07T04:13:57;2.13;;;1.40;;
65238;SDS011;51827;51.186;6.926;2022-12-07T04:14:57;2.67;;;1.40;;
65238;SDS011;51827;51.186;6.926;2022-12-07T04:15:58;2.53;;;1.50;;
65238;SDS011;51827;51.186;6.926;2022-12-07T04:16:58;1.80;;;1.33;;
65238;SDS011;51827;51.186;6.926;2022-12-07T04:17:59;1.98;;;1.30;;
65238;SDS011;51827;51.186;6.926;2022-12-07T04:18:59;2.03;;;1.30;;
65238;SDS011;51827;51.186;6.926;2022-12-07T04:19:59;2.40;;;1.50;;
65238;SDS011;51827;51.186;6.926;2022-12-07T04:20:59;3.03;;;1.50;;
65238;SDS011;51827;51.186;6.926;2022-12-07T04:22:00;2.17;;;1.30;;
65238;SDS011;51827;51.186;6.926;2022-12-07T04:23:02;2.10;;;1.48;;
65238;SDS011;51827;51.186;6.926;2022-12-07T04:24:02;2.53;;;1.30;;
65238;SDS011;51827;51.186;6.926;2022-12-07T04:25:03;1.98;;;1.42;;
65238;SDS011;51827;51.186;6.926;2022-12-07T04:26:04;1.90;;;1.50;;
65238;SDS011;51827;51.186;6.926;2022-12-07T04:27:04;2.20;;;1.38;;
65238;SDS011;51827;51.186;6.926;2022-12-07T04:28:05;1.83;;;1.20;;
65238;SDS011;51827;51.186;6.926;2022-12-07T04:29:05;1.87;;;1.40;;
65238;SDS011;51827;51.186;6.926;2022-12-07T04:30:06;1.77;;;1.30;;
65238;SDS011;51827;51.186;6.926;2022-12-07T04:31:06;2.53;;;1.45;;
65238;SDS011;51827;51.186;6.926;2022-12-07T04:32:09;2.78;;;1.40;;
65238;SDS011;51827;51.186;6.926;2022-12-07T04:33:09;1.93;;;1.20;;
65238;SDS011;51827;51.186;6.926;2022-12-07T04:34:09;4.03;;;1.33;;
65238;SDS011;51827;51.186;6.926;2022-12-07T04:35:10;2.13;;;1.40;;
65238;SDS011;51827;51.186;6.926;2022-12-07T04:36:11;2.23;;;1.23;;
65238;SDS011;51827;51.186;6.926;2022-12-07T04:37:11;2.30;;;1.35;;
65238;SDS011;51827;51.186;6.926;2022-12-07T04:38:11;2.23;;;1.30;;
65238;SDS011;51827;51.186;6.926;2022-12-07T04:39:28;1.70;;;1.33;;
65238;SDS011;51827;51.186;6.926;2022-12-07T04:40:29;2.92;;;1.65;;
65238;SDS011;51827;51.186;6.926;2022-12-07T04:41:30;1.90;;;1.50;;
65238;SDS011;51827;51.186;6.926;2022-12-07T04:42:30;1.65;;;1.20;;
65238;SDS011;51827;51.186;6.926;2022-12-07T04:43:30;2.67;;;1.50;;
65238;SDS011;51827;51.186;6.926;2022-12-07T04:44:31;3.00;;;1.40;;
65238;SDS011;51827;51.186;6.926;2022-12-07T04:45:31;2.03;;;1.33;;
65238;SDS011;51827;51.186;6.926;2022-12-07T04:46:32;2.53;;;1.37;;
65238;SDS011;51827;51.186;6.926;2022-12-07T04:47:32;2.17;;;1.23;;
65238;SDS011;51827;51.186;6.926;2022-12-07T04:48:32;1.63;;;1.20;;
65238;SDS011;51827;51.186;6.926;2022-12-07T04:49:33;2.20;;;1.50;;
65238;SDS011;51827;51.186;6.926;2022-12-07T04:50:34;2.10;;;1.30;;
65238;SDS011;51827;51.186;6.926;2022-12-07T04:51:35;2.15;;;1.33;;
65238;SDS011;51827;51.186;6.926;2022-12-07T04:52:35;2.00;;;1.20;;
65238;SDS011;51827;51.186;6.926;2022-12-07T04:53:35;1.67;;;1.17;;
65238;SDS011;51827;51.186;6.926;2022-12-07T04:54:36;2.20;;;1.27;;
65238;SDS011;51827;51.186;6.926;2022-12-07T04:55:36;2.20;;;1.30;;
65238;SDS011;51827;51.186;6.926;2022-12-07T04:56:36;2.60;;;1.57;;
65238;SDS011;51827;51.186;6.926;2022-12-07T04:57:38;4.05;;;1.40;;
65238;SDS011;51827;51.186;6.926;2022-12-07T04:58:38;2.50;;;1.37;;
65238;SDS011;51827;51.186;6.926;2022-12-07T04:59:38;2.20;;;1.27;;
65238;SDS011;51827;51.186;6.926;2022-12-07T05:00:39;2.10;;;1.40;;
65238;SDS011;51827;51.186;6.926;2022-12-07T05:01:39;1.90;;;1.47;;
65238;SDS011;51827;51.186;6.926;2022-12-07T05:02:40;2.13;;;1.40;;
65238;SDS011;51827;51.186;6.926;2022-12-07T05:03:40;2.40;;;1.40;;
65238;SDS011;51827;51.186;6.926;2022-12-07T05:04:41;4.03;;;1.45;;
65238;SDS011;51827;51.186;6.926;2022-12-07T05:05:41;2.00;;;1.40;;
65238;SDS011;51827;51.186;6.926;2022-12-07T05:06:41;2.23;;;1.30;;
65238;SDS011;51827;51.186;6.926;2022-12-07T05:07:42;2.67;;;1.15;;
65238;SDS011;51827;51.186;6.926;2022-12-07T05:08:42;2.47;;;1.30;;
65238;SDS011;51827;51.186;6.926;2022-12-07T05:09:42;8.75;;;1.48;;
65238;SDS011;51827;51.186;6.926;2022-12-07T05:10:43;2.70;;;1.40;;
65238;SDS011;51827;51.186;6.926;2022-12-07T05:11:43;2.60;;;1.40;;
65238;SDS011;51827;51.186;6.926;2022-12-07T05:12:43;1.60;;;1.20;;
65238;SDS011;51827;51.186;6.926;2022-12-07T05:13:43;3.17;;;1.37;;
65238;SDS011;51827;51.186;6.926;2022-12-07T05:14:44;3.20;;;1.63;;
65238;SDS011;51827;51.186;6.926;2022-12-07T05:15:44;3.37;;;1.90;;
65238;SDS011;51827;51.186;6.926;2022-12-07T05:16:46;4.25;;;1.90;;
65238;SDS011;51827;51.186;6.926;2022-12-07T05:17:48;4.07;;;2.00;;
65238;SDS011;51827;51.186;6.926;2022-12-07T05:18:48;5.07;;;2.23;;
65238;SDS011;51827;51.186;6.926;2022-12-07T05:19:48;6.70;;;2.70;;
65238;SDS011;51827;51.186;6.926;2022-12-07T05:20:49;6.27;;;2.20;;
65238;SDS011;51827;51.186;6.926;2022-12-07T05:21:49;3.67;;;2.20;;
65238;SDS011;51827;51.186;6.926;2022-12-07T05:22:49;5.13;;;2.80;;
65238;SDS011;51827;51.186;6.926;2022-12-07T05:23:50;4.90;;;2.70;;
65238;SDS011;51827;51.186;6.926;2022-12-07T05:24:50;5.50;;;2.50;;
65238;SDS011;51827;51.186;6.926;2022-12-07T05:25:51;5.03;;;2.60;;
65238;SDS011;51827;51.186;6.926;2022-12-07T05:26:51;4.20;;;2.30;;
65238;SDS011;51827;51.186;6.926;2022-12-07T05:27:51;8.17;;;2.57;;
65238;SDS011;51827;51.186;6.926;2022-12-07T05:28:52;9.23;;;2.20;;
65238;SDS011;51827;51.186;6.926;2022-12-07T05:29:52;4.47;;;2.60;;
65238;SDS011;51827;51.186;6.926;2022-12-07T05:30:53;4.53;;;2.10;;
65238;SDS011;51827;51.186;6.926;2022-12-07T05:31:53;5.40;;;2.30;;
65238;SDS011;51827;51.186;6.926;2022-12-07T05:32:53;3.90;;;2.00;;
65238;SDS011;51827;51.186;6.926;2022-12-07T05:33:53;4.00;;;2.23;;
65238;SDS011;51827;51.186;6.926;2022-12-07T05:34:54;7.40;;;2.20;;
65238;SDS011;51827;51.186;6.926;2022-12-07T05:35:54;3.97;;;1.97;;
65238;SDS011;51827;51.186;6.926;2022-12-07T05:36:54;3.43;;;2.03;;
65238;SDS011;51827;51.186;6.926;2022-12-07T05:37:55;3.17;;;2.07;;
65238;SDS011;51827;51.186;6.926;2022-12-07T05:38:55;5.20;;;2.00;;
65238;SDS011;51827;51.186;6.926;2022-12-07T05:39:56;4.17;;;1.77;;
65238;SDS011;51827;51.186;6.926;2022-12-07T05:40:59;9.07;;;1.90;;
65238;SDS011;51827;51.186;6.926;2022-12-07T05:42:00;5.28;;;2.55;;
65238;SDS011;51827;51.186;6.926;2022-12-07T05:43:00;3.70;;;2.00;;
65238;SDS011;51827;51.186;6.926;2022-12-07T05:44:01;22.90;;;3.77;;
65238;SDS011;51827;51.186;6.926;2022-12-07T05:45:01;7.25;;;2.60;;
65238;SDS011;51827;51.186;6.926;2022-12-07T05:46:02;7.18;;;2.22;;
65238;SDS011;51827;51.186;6.926;2022-12-07T05:47:02;9.70;;;2.43;;
65238;SDS011;51827;51.186;6.926;2022-12-07T05:48:02;18.43;;;3.37;;
65238;SDS011;51827;51.186;6.926;2022-12-07T05:49:03;16.95;;;2.90;;
65238;SDS011;51827;51.186;6.926;2022-12-07T05:50:03;20.57;;;3.67;;
65238;SDS011;51827;51.186;6.926;2022-12-07T05:51:04;12.23;;;2.90;;
65238;SDS011;51827;51.186;6.926;2022-12-07T05:52:04;20.13;;;2.80;;
65238;SDS011;51827;51.186;6.926;2022-12-07T05:53:05;11.18;;;2.78;;
65238;SDS011;51827;51.186;6.926;2022-12-07T05:54:05;9.03;;;2.77;;
65238;SDS011;51827;51.186;6.926;2022-12-07T05:55:06;9.77;;;2.90;;
65238;SDS011;51827;51.186;6.926;2022-12-07T05:56:06;13.93;;;2.70;;
65238;SDS011;51827;51.186;6.926;2022-12-07T05:57:07;10.03;;;2.83;;
65238;SDS011;51827;51.186;6.926;2022-12-07T05:58:07;8.37;;;2.40;;
65238;SDS011;51827;51.186;6.926;2022-12-07T05:59:08;8.93;;;2.70;;
65238;SDS011;51827;51.186;6.926;2022-12-07T06:01:09;13.27;;;2.27;;
65238;SDS011;51827;51.186;6.926;2022-12-07T06:02:10;7.87;;;2.50;;
65238;SDS011;51827;51.186;6.926;2022-12-07T06:03:13;10.70;;;2.63;;
65238;SDS011;51827;51.186;6.926;2022-12-07T06:04:13;7.83;;;2.60;;
65238;SDS011;51827;51.186;6.926;2022-12-07T06:05:13;8.93;;;2.70;;
65238;SDS011;51827;51.186;6.926;2022-12-07T06:06:13;23.00;;;2.63;;
65238;SDS011;51827;51.186;6.926;2022-12-07T06:07:14;5.83;;;2.03;;
65238;SDS011;51827;51.186;6.926;2022-12-07T06:08:16;10.68;;;2.60;;
65238;SDS011;51827;51.186;6.926;2022-12-07T06:09:16;9.97;;;2.20;;
65238;SDS011;51827;51.186;6.926;2022-12-07T06:10:17;8.20;;;2.47;;
65238;SDS011;51827;51.186;6.926;2022-12-07T06:11:17;5.70;;;2.17;;
65238;SDS011;51827;51.186;6.926;2022-12-07T06:12:18;7.20;;;2.13;;
65238;SDS011;51827;51.186;6.926;2022-12-07T06:13:18;9.93;;;2.40;;
65238;SDS011;51827;51.186;6.926;2022-12-07T06:14:18;7.40;;;2.10;;
65238;SDS011;51827;51.186;6.926;2022-12-07T06:15:18;7.80;;;2.27;;
65238;SDS011;51827;51.186;6.926;2022-12-07T06:16:19;10.93;;;2.03;;
65238;SDS011;51827;51.186;6.926;2022-12-07T06:17:19;4.20;;;2.00;;
65238;SDS011;51827;51.186;6.926;2022-12-07T06:18:19;6.53;;;2.10;;
65238;SDS011;51827;51.186;6.926;2022-12-07T06:19:19;4.27;;;2.03;;
65238;SDS011;51827;51.186;6.926;2022-12-07T06:20:20;6.07;;;2.17;;
65238;SDS011;51827;51.186;6.926;2022-12-07T06:21:20;8.50;;;2.13;;
65238;SDS011;51827;51.186;6.926;2022-12-07T06:22:20;4.47;;;2.03;;
65238;SDS011;51827;51.186;6.926;2022-12-07T06:23:20;7.13;;;2.10;;
65238;SDS011;51827;51.186;6.926;2022-12-07T06:24:21;8.37;;;2.50;;
65238;SDS011;51827;51.186;6.926;2022-12-07T06:25:21;6.88;;;2.20;;
65238;SDS011;51827;51.186;6.926;2022-12-07T06:26:22;7.93;;;2.17;;
65238;SDS011;51827;51.186;6.926;2022-12-07T06:27:22;7.60;;;2.00;;
65238;SDS011;51827;51.186;6.926;2022-12-07T06:28:22;5.40;;;1.97;;
65238;SDS011;51827;51.186;6.926;2022-12-07T06:29:22;6.13;;;1.70;;
65238;SDS011;51827;51.186;6.926;2022-12-07T06:30:23;5.73;;;1.70;;
65238;SDS011;51827;51.186;6.926;2022-12-07T06:31:23;6.70;;;1.63;;
65238;SDS011;51827;51.186;6.926;2022-12-07T06:32:23;4.83;;;1.80;;
65238;SDS011;51827;51.186;6.926;2022-12-07T06:33:23;5.13;;;1.90;;
65238;SDS011;51827;51.186;6.926;2022-12-07T06:34:24;8.23;;;1.87;;
65238;SDS011;51827;51.186;6.926;2022-12-07T06:35:25;5.60;;;1.98;;
65238;SDS011;51827;51.186;6.926;2022-12-07T06:36:25;6.07;;;2.10;;
65238;SDS011;51827;51.186;6.926;2022-12-07T06:37:25;5.68;;;1.80;;
65238;SDS011;51827;51.186;6.926;2022-12-07T06:38:26;5.27;;;2.00;;
65238;SDS011;51827;51.186;6.926;2022-12-07T06:39:27;7.37;;;1.70;;
65238;SDS011;51827;51.186;6.926;2022-12-07T06:40:28;4.70;;;1.73;;
65238;SDS011;51827;51.186;6.926;2022-12-07T06:41:28;5.57;;;1.90;;
65238;SDS011;51827;51.186;6.926;2022-12-07T06:42:28;7.03;;;2.07;;
65238;SDS011;51827;51.186;6.926;2022-12-07T06:43:29;5.03;;;1.77;;
65238;SDS011;51827;51.186;6.926;2022-12-07T06:44:29;5.03;;;1.50;;
65238;SDS011;51827;51.186;6.926;2022-12-07T06:45:29;7.03;;;1.57;;
65238;SDS011;51827;51.186;6.926;2022-12-07T06:46:30;6.27;;;2.13;;
65238;SDS011;51827;51.186;6.926;2022-12-07T06:47:30;5.90;;;1.67;;
65238;SDS011;51827;51.186;6.926;2022-12-07T06:48:30;4.60;;;1.60;;
65238;SDS011;51827;51.186;6.926;2022-12-07T06:49:31;4.20;;;1.80;;
65238;SDS011;51827;51.186;6.926;2022-12-07T06:50:31;5.90;;;1.87;;
65238;SDS011;51827;51.186;6.926;2022-12-07T06:51:32;4.43;;;1.63;;
65238;SDS011;51827;51.186;6.926;2022-12-07T06:52:33;6.20;;;1.70;;
65238;SDS011;51827;51.186;6.926;2022-12-07T06:53:34;2.90;;;1.45;;
65238;SDS011;51827;51.186;6.926;2022-12-07T06:54:34;4.88;;;1.40;;
65238;SDS011;51827;51.186;6.926;2022-12-07T06:55:35;5.30;;;1.70;;
65238;SDS011;51827;51.186;6.926;2022-12-07T06:56:35;2.87;;;1.60;;
65238;SDS011;51827;51.186;6.926;2022-12-07T06:57:35;5.77;;;1.97;;